sensor_id;sensor_type;location;lat;lon;timestamp;noise_LAeq;noise_LA_min;noise_LA_max;noise_LA01;noise_LA95
76767;Laerm;65707;52.362;6.588;2024-02-28T00:00:52;38.83;31.44;46.88;;
76767;Laerm;65707;52.362;6.588;2024-02-28T00:03:19;41.59;32.94;63.75;;
76767;Laerm;65707;52.362;6.588;2024-02-28T00:05:47;40.03;32.98;59.52;;
76767;Laerm;65707;52.362;6.588;2024-02-28T00:08:14;38.34;30.84;43.81;;
76767;Laerm;65707;52.362;6.588;2024-02-28T00:10:43;39.59;31.02;53.17;;
76767;Laerm;65707;52.362;6.588;2024-02-28T00:13:10;70.64;32.59;85.02;;
76767;Laerm;65707;52.362;6.588;2024-02-28T00:15:37;68.80;34.55;84.06;;
76767;Laerm;65707;52.362;6.588;2024-02-28T00:18:04;38.75;32.71;50.55;;
76767;Laerm;65707;52.362;6.588;2024-02-28T00:20:30;41.02;31.98;62.97;;
76767;Laerm;65707;52.362;6.588;2024-02-28T00:22:57;38.45;31.84;47.63;;
76767;Laerm;65707;52.362;6.588;2024-02-28T00:25:24;38.94;31.45;55.96;;
76767;Laerm;65707;52.362;6.588;2024-02-28T00:27:52;38.31;31.43;52.38;;
76767;Laerm;65707;52.362;6.588;2024-02-28T00:30:19;38.49;31.50;44.70;;
76767;Laerm;65707;52.362;6.588;2024-02-28T00:32:48;38.57;31.82;44.90;;
76767;Laerm;65707;52.362;6.588;2024-02-28T00:35:14;38.65;31.95;51.77;;
76767;Laerm;65707;52.362;6.588;2024-02-28T00:37:41;38.63;32.61;44.73;;
76767;Laerm;65707;52.362;6.588;2024-02-28T00:40:09;40.26;32.10;57.08;;
76767;Laerm;65707;52.362;6.588;2024-02-28T00:42:36;38.64;31.52;49.09;;
76767;Laerm;65707;52.362;6.588;2024-02-28T00:45:08;38.39;31.32;45.21;;
76767;Laerm;65707;52.362;6.588;2024-02-28T00:47:35;38.34;31.12;41.12;;
76767;Laerm;65707;52.362;6.588;2024-02-28T00:50:02;38.54;32.15;48.87;;
76767;Laerm;65707;52.362;6.588;2024-02-28T00:52:29;38.57;31.68;39.84;;
76767;Laerm;65707;52.362;6.588;2024-02-28T00:54:57;40.40;31.42;60.34;;
76767;Laerm;65707;52.362;6.588;2024-02-28T00:57:25;39.49;31.83;51.79;;
76767;Laerm;65707;52.362;6.588;2024-02-28T00:59:51;72.11;34.83;87.82;;
76767;Laerm;65707;52.362;6.588;2024-02-28T01:02:21;39.14;32.48;48.67;;
76767;Laerm;65707;52.362;6.588;2024-02-28T01:04:48;38.68;31.42;40.10;;
76767;Laerm;65707;52.362;6.588;2024-02-28T01:07:15;38.67;32.23;43.76;;
76767;Laerm;65707;52.362;6.588;2024-02-28T01:09:41;39.47;30.62;56.82;;
76767;Laerm;65707;52.362;6.588;2024-02-28T01:12:08;38.69;32.52;48.20;;
76767;Laerm;65707;52.362;6.588;2024-02-28T01:14:35;39.01;30.88;55.46;;
76767;Laerm;65707;52.362;6.588;2024-02-28T01:17:01;38.38;31.18;46.14;;
76767;Laerm;65707;52.362;6.588;2024-02-28T01:19:30;38.53;33.26;39.85;;
76767;Laerm;65707;52.362;6.588;2024-02-28T01:21:57;40.41;32.27;50.51;;
76767;Laerm;65707;52.362;6.588;2024-02-28T01:24:25;72.43;33.50;86.36;;
76767;Laerm;65707;52.362;6.588;2024-02-28T01:26:51;38.58;32.42;42.55;;
76767;Laerm;65707;52.362;6.588;2024-02-28T01:29:18;40.56;34.47;52.49;;
76767;Laerm;65707;52.362;6.588;2024-02-28T01:31:45;39.52;31.86;47.25;;
76767;Laerm;65707;52.362;6.588;2024-02-28T01:34:11;38.64;31.55;42.41;;
76767;Laerm;65707;52.362;6.588;2024-02-28T01:36:39;38.76;32.38;43.93;;
76767;Laerm;65707;52.362;6.588;2024-02-28T01:39:06;68.03;34.88;86.11;;
76767;Laerm;65707;52.362;6.588;2024-02-28T01:41:33;67.38;34.33;83.58;;
76767;Laerm;65707;52.362;6.588;2024-02-28T01:44:00;38.84;33.25;51.00;;
76767;Laerm;65707;52.362;6.588;2024-02-28T01:46:28;38.56;33.55;46.12;;
76767;Laerm;65707;52.362;6.588;2024-02-28T01:48:55;39.43;31.90;49.99;;
76767;Laerm;65707;52.362;6.588;2024-02-28T01:51:24;38.64;32.27;40.41;;
76767;Laerm;65707;52.362;6.588;2024-02-28T01:53:53;39.60;32.75;47.37;;
76767;Laerm;65707;52.362;6.588;2024-02-28T01:56:22;38.73;31.13;42.72;;
76767;Laerm;65707;52.362;6.588;2024-02-28T01:58:50;39.30;32.47;46.35;;
76767;Laerm;65707;52.362;6.588;2024-02-28T02:01:17;39.89;32.31;53.85;;
76767;Laerm;65707;52.362;6.588;2024-02-28T02:03:44;38.50;31.81;47.59;;
76767;Laerm;65707;52.362;6.588;2024-02-28T02:06:11;38.74;34.40;40.79;;
76767;Laerm;65707;52.362;6.588;2024-02-28T02:08:39;38.58;32.13;43.43;;
76767;Laerm;65707;52.362;6.588;2024-02-28T02:11:08;39.29;32.25;57.34;;
76767;Laerm;65707;52.362;6.588;2024-02-28T02:13:35;38.48;31.93;46.68;;
76767;Laerm;65707;52.362;6.588;2024-02-28T02:16:02;38.61;33.87;50.12;;
76767;Laerm;65707;52.362;6.588;2024-02-28T02:18:28;43.56;33.25;54.14;;
76767;Laerm;65707;52.362;6.588;2024-02-28T02:21:02;38.83;31.62;55.74;;
76767;Laerm;65707;52.362;6.588;2024-02-28T02:23:32;38.56;32.55;45.98;;
76767;Laerm;65707;52.362;6.588;2024-02-28T02:25:59;40.38;32.09;58.73;;
76767;Laerm;65707;52.362;6.588;2024-02-28T02:28:26;38.56;32.12;51.12;;
76767;Laerm;65707;52.362;6.588;2024-02-28T02:30:52;38.68;32.23;45.60;;
76767;Laerm;65707;52.362;6.588;2024-02-28T02:33:19;71.71;31.25;85.85;;
76767;Laerm;65707;52.362;6.588;2024-02-28T02:35:46;39.94;32.19;47.97;;
76767;Laerm;65707;52.362;6.588;2024-02-28T02:38:12;38.67;33.79;45.13;;
76767;Laerm;65707;52.362;6.588;2024-02-28T02:40:41;38.63;32.55;45.47;;
76767;Laerm;65707;52.362;6.588;2024-02-28T02:43:07;39.92;31.06;63.78;;
76767;Laerm;65707;52.362;6.588;2024-02-28T02:45:35;39.58;32.28;55.31;;
76767;Laerm;65707;52.362;6.588;2024-02-28T02:48:01;40.76;32.94;53.05;;
76767;Laerm;65707;52.362;6.588;2024-02-28T02:50:28;38.93;31.98;55.36;;
76767;Laerm;65707;52.362;6.588;2024-02-28T02:52:55;38.93;33.74;44.73;;
76767;Laerm;65707;52.362;6.588;2024-02-28T02:55:21;38.58;31.98;48.93;;
76767;Laerm;65707;52.362;6.588;2024-02-28T02:57:49;38.68;32.91;42.06;;
76767;Laerm;65707;52.362;6.588;2024-02-28T03:00:17;39.15;32.11;51.80;;
76767;Laerm;65707;52.362;6.588;2024-02-28T03:02:43;38.72;33.15;47.25;;
76767;Laerm;65707;52.362;6.588;2024-02-28T03:05:10;40.25;32.26;50.49;;
76767;Laerm;65707;52.362;6.588;2024-02-28T03:07:37;38.94;32.13;41.36;;
76767;Laerm;65707;52.362;6.588;2024-02-28T03:10:05;38.97;35.43;41.22;;
76767;Laerm;65707;52.362;6.588;2024-02-28T03:12:32;38.90;33.47;43.99;;
76767;Laerm;65707;52.362;6.588;2024-02-28T03:15:00;39.35;32.47;51.90;;
76767;Laerm;65707;52.362;6.588;2024-02-28T03:17:27;39.15;35.10;44.74;;
76767;Laerm;65707;52.362;6.588;2024-02-28T03:19:53;38.74;32.51;45.56;;
76767;Laerm;65707;52.362;6.588;2024-02-28T03:22:20;38.94;31.86;41.06;;
76767;Laerm;65707;52.362;6.588;2024-02-28T03:24:47;40.27;32.62;53.35;;
76767;Laerm;65707;52.362;6.588;2024-02-28T03:27:14;40.00;34.68;54.16;;
76767;Laerm;65707;52.362;6.588;2024-02-28T03:29:40;40.27;33.83;50.47;;
76767;Laerm;65707;52.362;6.588;2024-02-28T03:32:08;40.16;34.18;49.93;;
76767;Laerm;65707;52.362;6.588;2024-02-28T03:34:35;38.82;33.20;41.62;;
76767;Laerm;65707;52.362;6.588;2024-02-28T03:37:02;41.37;33.73;53.44;;
76767;Laerm;65707;52.362;6.588;2024-02-28T03:39:28;39.51;36.41;45.34;;
76767;Laerm;65707;52.362;6.588;2024-02-28T03:41:55;39.00;33.99;46.08;;
76767;Laerm;65707;52.362;6.588;2024-02-28T03:44:22;71.83;34.79;84.76;;
76767;Laerm;65707;52.362;6.588;2024-02-28T03:46:51;39.51;34.16;44.99;;
76767;Laerm;65707;52.362;6.588;2024-02-28T03:49:19;41.23;34.07;52.80;;
76767;Laerm;65707;52.362;6.588;2024-02-28T03:51:45;39.51;34.96;45.16;;
76767;Laerm;65707;52.362;6.588;2024-02-28T03:54:12;43.03;33.99;52.71;;
76767;Laerm;65707;52.362;6.588;2024-02-28T03:56:39;40.07;34.09;53.04;;
76767;Laerm;65707;52.362;6.588;2024-02-28T03:59:06;39.22;33.25;52.32;;
76767;Laerm;65707;52.362;6.588;2024-02-28T04:01:32;40.52;34.29;50.83;;
76767;Laerm;65707;52.362;6.588;2024-02-28T04:03:59;40.71;35.51;53.44;;
76767;Laerm;65707;52.362;6.588;2024-02-28T04:06:27;39.72;35.05;54.95;;
76767;Laerm;65707;52.362;6.588;2024-02-28T04:08:54;44.29;36.91;55.13;;
76767;Laerm;65707;52.362;6.588;2024-02-28T04:11:21;61.30;36.94;81.96;;
76767;Laerm;65707;52.362;6.588;2024-02-28T04:13:48;40.41;36.38;54.43;;
76767;Laerm;65707;52.362;6.588;2024-02-28T04:16:14;42.74;35.04;54.58;;
76767;Laerm;65707;52.362;6.588;2024-02-28T04:18:41;40.00;35.04;54.21;;
76767;Laerm;65707;52.362;6.588;2024-02-28T04:21:08;40.53;35.25;58.61;;
76767;Laerm;65707;52.362;6.588;2024-02-28T04:23:36;40.14;35.81;49.41;;
76767;Laerm;65707;52.362;6.588;2024-02-28T04:26:03;41.19;34.86;56.30;;
76767;Laerm;65707;52.362;6.588;2024-02-28T04:28:30;40.59;35.58;54.65;;
76767;Laerm;65707;52.362;6.588;2024-02-28T04:30:57;42.58;35.73;56.82;;
76767;Laerm;65707;52.362;6.588;2024-02-28T04:33:24;42.12;35.40;59.31;;
76767;Laerm;65707;52.362;6.588;2024-02-28T04:35:50;43.31;35.61;59.63;;
76767;Laerm;65707;52.362;6.588;2024-02-28T04:38:17;55.63;36.30;74.36;;
76767;Laerm;65707;52.362;6.588;2024-02-28T04:40:45;64.22;35.14;81.97;;
76767;Laerm;65707;52.362;6.588;2024-02-28T04:43:11;44.36;36.46;55.66;;
76767;Laerm;65707;52.362;6.588;2024-02-28T04:45:38;44.29;37.26;54.44;;
76767;Laerm;65707;52.362;6.588;2024-02-28T04:48:06;45.18;37.29;55.64;;
76767;Laerm;65707;52.362;6.588;2024-02-28T04:50:33;44.57;38.60;58.65;;
76767;Laerm;65707;52.362;6.588;2024-02-28T04:53:00;55.34;37.50;74.09;;
76767;Laerm;65707;52.362;6.588;2024-02-28T04:55:26;46.07;36.97;57.60;;
76767;Laerm;65707;52.362;6.588;2024-02-28T04:57:55;45.30;38.49;58.98;;
76767;Laerm;65707;52.362;6.588;2024-02-28T05:00:22;57.64;39.02;74.81;;
76767;Laerm;65707;52.362;6.588;2024-02-28T05:02:48;44.21;37.58;54.60;;
76767;Laerm;65707;52.362;6.588;2024-02-28T05:05:15;43.95;38.43;61.39;;
76767;Laerm;65707;52.362;6.588;2024-02-28T05:07:42;46.75;38.71;67.62;;
76767;Laerm;65707;52.362;6.588;2024-02-28T05:10:09;66.37;40.33;81.90;;
76767;Laerm;65707;52.362;6.588;2024-02-28T05:12:36;43.19;37.98;53.60;;
76767;Laerm;65707;52.362;6.588;2024-02-28T05:15:05;43.91;38.73;53.27;;
76767;Laerm;65707;52.362;6.588;2024-02-28T05:17:32;44.25;38.45;57.59;;
76767;Laerm;65707;52.362;6.588;2024-02-28T05:19:59;45.69;38.96;57.38;;
76767;Laerm;65707;52.362;6.588;2024-02-28T05:22:26;45.69;39.34;57.96;;
76767;Laerm;65707;52.362;6.588;2024-02-28T05:24:52;58.60;39.48;74.89;;
76767;Laerm;65707;52.362;6.588;2024-02-28T05:27:19;45.18;40.26;57.17;;
76767;Laerm;65707;52.362;6.588;2024-02-28T05:29:46;57.81;38.62;75.14;;
76767;Laerm;65707;52.362;6.588;2024-02-28T05:32:14;48.57;40.79;63.29;;
76767;Laerm;65707;52.362;6.588;2024-02-28T05:34:42;48.03;40.65;61.80;;
76767;Laerm;65707;52.362;6.588;2024-02-28T05:37:09;60.70;40.81;78.94;;
76767;Laerm;65707;52.362;6.588;2024-02-28T05:39:36;49.63;41.88;66.57;;
76767;Laerm;65707;52.362;6.588;2024-02-28T05:42:03;66.14;41.28;82.14;;
76767;Laerm;65707;52.362;6.588;2024-02-28T05:44:30;46.79;41.07;63.07;;
76767;Laerm;65707;52.362;6.588;2024-02-28T05:46:56;47.24;40.53;64.41;;
76767;Laerm;65707;52.362;6.588;2024-02-28T05:49:24;47.38;40.99;59.21;;
76767;Laerm;65707;52.362;6.588;2024-02-28T05:51:51;59.86;41.81;81.18;;
76767;Laerm;65707;52.362;6.588;2024-02-28T05:54:19;55.21;41.70;71.50;;
76767;Laerm;65707;52.362;6.588;2024-02-28T05:56:45;59.15;41.68;77.64;;
76767;Laerm;65707;52.362;6.588;2024-02-28T05:59:12;56.18;41.21;71.76;;
76767;Laerm;65707;52.362;6.588;2024-02-28T06:01:39;55.79;41.82;74.66;;
76767;Laerm;65707;52.362;6.588;2024-02-28T06:04:06;49.41;41.97;67.06;;
76767;Laerm;65707;52.362;6.588;2024-02-28T06:06:34;57.34;41.55;74.96;;
76767;Laerm;65707;52.362;6.588;2024-02-28T06:09:01;60.94;41.75;77.73;;
76767;Laerm;65707;52.362;6.588;2024-02-28T06:11:28;67.56;42.44;85.61;;
76767;Laerm;65707;52.362;6.588;2024-02-28T06:13:54;47.25;41.72;56.22;;
76767;Laerm;65707;52.362;6.588;2024-02-28T06:16:22;51.11;41.78;65.87;;
76767;Laerm;65707;52.362;6.588;2024-02-28T06:18:48;48.66;41.44;68.12;;
76767;Laerm;65707;52.362;6.588;2024-02-28T06:21:15;59.50;42.84;80.39;;
76767;Laerm;65707;52.362;6.588;2024-02-28T06:23:43;57.11;42.67;72.57;;
76767;Laerm;65707;52.362;6.588;2024-02-28T06:26:10;59.37;42.78;74.63;;
76767;Laerm;65707;52.362;6.588;2024-02-28T06:28:42;55.55;42.54;74.93;;
76767;Laerm;65707;52.362;6.588;2024-02-28T06:31:14;57.52;42.86;70.90;;
76767;Laerm;65707;52.362;6.588;2024-02-28T06:33:41;47.80;42.05;64.04;;
76767;Laerm;65707;52.362;6.588;2024-02-28T06:36:07;49.20;42.66;58.75;;
76767;Laerm;65707;52.362;6.588;2024-02-28T06:38:34;67.49;43.04;83.26;;
76767;Laerm;65707;52.362;6.588;2024-02-28T06:41:03;62.53;43.75;80.23;;
76767;Laerm;65707;52.362;6.588;2024-02-28T06:43:33;69.64;43.24;85.13;;
76767;Laerm;65707;52.362;6.588;2024-02-28T06:46:03;69.99;44.52;86.65;;
76767;Laerm;65707;52.362;6.588;2024-02-28T06:48:30;51.46;43.69;67.88;;
76767;Laerm;65707;52.362;6.588;2024-02-28T06:50:57;64.08;43.92;82.38;;
76767;Laerm;65707;52.362;6.588;2024-02-28T06:53:24;60.01;43.46;75.60;;
76767;Laerm;65707;52.362;6.588;2024-02-28T06:55:51;58.23;43.02;76.91;;
76767;Laerm;65707;52.362;6.588;2024-02-28T06:58:19;52.23;42.63;71.58;;
76767;Laerm;65707;52.362;6.588;2024-02-28T07:00:48;59.73;43.94;72.80;;
76767;Laerm;65707;52.362;6.588;2024-02-28T07:03:15;50.47;42.98;62.49;;
76767;Laerm;65707;52.362;6.588;2024-02-28T07:05:42;50.37;43.48;67.99;;
76767;Laerm;65707;52.362;6.588;2024-02-28T07:08:08;62.26;43.56;82.76;;
76767;Laerm;65707;52.362;6.588;2024-02-28T07:10:36;62.79;44.84;80.68;;
76767;Laerm;65707;52.362;6.588;2024-02-28T07:13:04;51.26;44.16;66.85;;
76767;Laerm;65707;52.362;6.588;2024-02-28T07:15:32;50.37;45.12;61.19;;
76767;Laerm;65707;52.362;6.588;2024-02-28T07:17:59;53.06;44.46;72.12;;
76767;Laerm;65707;52.362;6.588;2024-02-28T07:20:26;60.70;44.11;81.11;;
76767;Laerm;65707;52.362;6.588;2024-02-28T07:22:52;51.87;44.64;66.71;;
76767;Laerm;65707;52.362;6.588;2024-02-28T07:25:19;59.77;45.84;75.55;;
76767;Laerm;65707;52.362;6.588;2024-02-28T07:27:47;50.21;43.09;64.50;;
76767;Laerm;65707;52.362;6.588;2024-02-28T07:30:14;56.72;44.26;74.37;;
76767;Laerm;65707;52.362;6.588;2024-02-28T07:32:42;61.32;44.71;76.59;;
76767;Laerm;65707;52.362;6.588;2024-02-28T07:35:09;52.42;43.83;68.20;;
76767;Laerm;65707;52.362;6.588;2024-02-28T07:37:36;50.72;44.05;70.51;;
76767;Laerm;65707;52.362;6.588;2024-02-28T07:40:04;60.41;44.43;77.16;;
76767;Laerm;65707;52.362;6.588;2024-02-28T07:42:33;66.32;43.77;82.57;;
76767;Laerm;65707;52.362;6.588;2024-02-28T07:45:00;49.72;43.31;63.28;;
76767;Laerm;65707;52.362;6.588;2024-02-28T07:47:27;49.74;43.66;59.51;;
76767;Laerm;65707;52.362;6.588;2024-02-28T07:49:55;66.71;44.32;82.91;;
76767;Laerm;65707;52.362;6.588;2024-02-28T07:52:21;50.24;43.62;66.05;;
76767;Laerm;65707;52.362;6.588;2024-02-28T07:54:48;72.40;44.91;87.20;;
76767;Laerm;65707;52.362;6.588;2024-02-28T07:57:15;53.43;43.90;78.24;;
76767;Laerm;65707;52.362;6.588;2024-02-28T07:59:42;54.52;43.77;80.28;;
76767;Laerm;65707;52.362;6.588;2024-02-28T08:02:09;58.37;44.39;76.77;;
76767;Laerm;65707;52.362;6.588;2024-02-28T08:04:38;51.62;43.00;73.06;;
76767;Laerm;65707;52.362;6.588;2024-02-28T08:07:06;56.81;44.02;74.48;;
76767;Laerm;65707;52.362;6.588;2024-02-28T08:09:33;60.59;44.47;83.42;;
76767;Laerm;65707;52.362;6.588;2024-02-28T08:11:59;64.43;46.14;83.14;;
76767;Laerm;65707;52.362;6.588;2024-02-28T08:14:27;59.17;44.36;77.69;;
76767;Laerm;65707;52.362;6.588;2024-02-28T08:16:54;52.19;44.49;72.93;;
76767;Laerm;65707;52.362;6.588;2024-02-28T08:19:21;49.21;43.35;62.20;;
76767;Laerm;65707;52.362;6.588;2024-02-28T08:21:47;62.39;43.85;81.69;;
76767;Laerm;65707;52.362;6.588;2024-02-28T08:24:16;51.61;44.07;71.95;;
76767;Laerm;65707;52.362;6.588;2024-02-28T08:26:43;63.17;43.04;92.19;;
76767;Laerm;65707;52.362;6.588;2024-02-28T08:29:09;55.59;44.15;71.92;;
76767;Laerm;65707;52.362;6.588;2024-02-28T08:31:41;56.70;43.81;73.09;;
76767;Laerm;65707;52.362;6.588;2024-02-28T08:34:08;50.40;44.75;68.51;;
76767;Laerm;65707;52.362;6.588;2024-02-28T08:36:35;52.80;44.66;67.32;;
76767;Laerm;65707;52.362;6.588;2024-02-28T08:39:02;65.60;42.76;82.97;;
76767;Laerm;65707;52.362;6.588;2024-02-28T08:41:33;51.40;44.88;65.02;;
76767;Laerm;65707;52.362;6.588;2024-02-28T08:44:00;61.70;43.75;80.20;;
76767;Laerm;65707;52.362;6.588;2024-02-28T08:46:27;49.04;42.30;58.09;;
76767;Laerm;65707;52.362;6.588;2024-02-28T08:48:53;54.93;43.47;78.88;;
76767;Laerm;65707;52.362;6.588;2024-02-28T08:51:20;62.75;43.05;81.32;;
76767;Laerm;65707;52.362;6.588;2024-02-28T08:53:47;51.05;43.00;67.32;;
76767;Laerm;65707;52.362;6.588;2024-02-28T08:56:14;62.72;44.49;78.03;;
76767;Laerm;65707;52.362;6.588;2024-02-28T08:58:42;52.94;44.22;70.83;;
76767;Laerm;65707;52.362;6.588;2024-02-28T09:01:13;55.25;43.42;72.37;;
76767;Laerm;65707;52.362;6.588;2024-02-28T09:03:41;49.11;42.32;65.53;;
76767;Laerm;65707;52.362;6.588;2024-02-28T09:06:08;49.64;44.09;60.11;;
76767;Laerm;65707;52.362;6.588;2024-02-28T09:08:34;50.73;43.94;63.34;;
76767;Laerm;65707;52.362;6.588;2024-02-28T09:11:01;61.61;44.78;77.44;;
76767;Laerm;65707;52.362;6.588;2024-02-28T09:13:28;60.72;42.82;77.24;;
76767;Laerm;65707;52.362;6.588;2024-02-28T09:15:57;51.24;44.03;65.87;;
76767;Laerm;65707;52.362;6.588;2024-02-28T09:18:24;73.61;44.10;87.16;;
76767;Laerm;65707;52.362;6.588;2024-02-28T09:20:50;62.03;44.80;80.67;;
76767;Laerm;65707;52.362;6.588;2024-02-28T09:23:17;52.76;43.68;70.82;;
76767;Laerm;65707;52.362;6.588;2024-02-28T09:25:44;57.44;44.04;74.31;;
76767;Laerm;65707;52.362;6.588;2024-02-28T09:28:11;52.55;43.36;71.50;;
76767;Laerm;65707;52.362;6.588;2024-02-28T09:30:39;57.22;44.11;72.32;;
76767;Laerm;65707;52.362;6.588;2024-02-28T09:33:07;52.39;43.81;73.41;;
76767;Laerm;65707;52.362;6.588;2024-02-28T09:35:34;52.88;43.42;75.16;;
76767;Laerm;65707;52.362;6.588;2024-02-28T09:38:01;56.28;43.06;75.07;;
76767;Laerm;65707;52.362;6.588;2024-02-28T09:40:30;50.32;43.81;68.70;;
76767;Laerm;65707;52.362;6.588;2024-02-28T09:43:01;62.72;44.09;80.21;;
76767;Laerm;65707;52.362;6.588;2024-02-28T09:45:29;49.93;43.77;67.24;;
76767;Laerm;65707;52.362;6.588;2024-02-28T09:47:58;51.34;42.52;67.59;;
76767;Laerm;65707;52.362;6.588;2024-02-28T09:50:27;62.24;43.89;80.03;;
76767;Laerm;65707;52.362;6.588;2024-02-28T09:52:54;66.45;44.28;81.16;;
76767;Laerm;65707;52.362;6.588;2024-02-28T09:55:21;56.40;44.30;76.21;;
76767;Laerm;65707;52.362;6.588;2024-02-28T09:57:48;57.34;44.62;76.27;;
76767;Laerm;65707;52.362;6.588;2024-02-28T10:00:19;56.34;43.57;70.46;;
76767;Laerm;65707;52.362;6.588;2024-02-28T10:02:47;55.08;43.99;71.94;;
76767;Laerm;65707;52.362;6.588;2024-02-28T10:05:15;48.56;42.29;60.32;;
76767;Laerm;65707;52.362;6.588;2024-02-28T10:07:45;57.82;43.71;75.71;;
76767;Laerm;65707;52.362;6.588;2024-02-28T10:10:12;64.45;42.62;80.98;;
76767;Laerm;65707;52.362;6.588;2024-02-28T10:12:41;48.83;43.51;61.57;;
76767;Laerm;65707;52.362;6.588;2024-02-28T10:15:10;49.28;42.89;60.16;;
76767;Laerm;65707;52.362;6.588;2024-02-28T10:17:37;49.59;42.28;64.62;;
76767;Laerm;65707;52.362;6.588;2024-02-28T10:20:05;59.26;43.28;82.47;;
76767;Laerm;65707;52.362;6.588;2024-02-28T10:22:35;58.97;41.94;81.51;;
76767;Laerm;65707;52.362;6.588;2024-02-28T10:25:04;55.72;42.87;74.21;;
76767;Laerm;65707;52.362;6.588;2024-02-28T10:27:32;50.16;43.31;60.16;;
76767;Laerm;65707;52.362;6.588;2024-02-28T10:30:00;57.32;42.69;74.87;;
76767;Laerm;65707;52.362;6.588;2024-02-28T10:32:30;50.32;43.30;61.82;;
76767;Laerm;65707;52.362;6.588;2024-02-28T10:34:58;49.14;44.34;64.13;;
76767;Laerm;65707;52.362;6.588;2024-02-28T10:37:28;58.01;45.02;75.18;;
76767;Laerm;65707;52.362;6.588;2024-02-28T10:39:57;67.01;44.09;82.74;;
76767;Laerm;65707;52.362;6.588;2024-02-28T10:42:27;49.59;43.36;67.67;;
76767;Laerm;65707;52.362;6.588;2024-02-28T10:44:57;49.13;43.53;60.03;;
76767;Laerm;65707;52.362;6.588;2024-02-28T10:47:27;49.76;43.01;64.53;;
76767;Laerm;65707;52.362;6.588;2024-02-28T10:49:53;63.01;43.44;82.23;;
76767;Laerm;65707;52.362;6.588;2024-02-28T10:52:21;58.62;44.57;75.15;;
76767;Laerm;65707;52.362;6.588;2024-02-28T10:54:54;53.14;43.31;68.74;;
76767;Laerm;65707;52.362;6.588;2024-02-28T10:57:25;56.96;44.58;76.08;;
76767;Laerm;65707;52.362;6.588;2024-02-28T10:59:53;50.50;43.48;67.34;;
76767;Laerm;65707;52.362;6.588;2024-02-28T11:02:22;57.52;45.21;76.03;;
76767;Laerm;65707;52.362;6.588;2024-02-28T11:04:51;55.79;44.89;67.93;;
76767;Laerm;65707;52.362;6.588;2024-02-28T11:07:20;57.40;44.06;76.46;;
76767;Laerm;65707;52.362;6.588;2024-02-28T11:09:47;68.99;44.82;83.39;;
76767;Laerm;65707;52.362;6.588;2024-02-28T11:12:26;67.29;45.11;85.12;;
76767;Laerm;65707;52.362;6.588;2024-02-28T11:14:58;49.87;43.70;67.35;;
76767;Laerm;65707;52.362;6.588;2024-02-28T11:17:27;48.92;43.93;58.75;;
76767;Laerm;65707;52.362;6.588;2024-02-28T11:19:54;62.57;42.64;81.26;;
76767;Laerm;65707;52.362;6.588;2024-02-28T11:22:22;48.99;43.58;58.75;;
76767;Laerm;65707;52.362;6.588;2024-02-28T11:24:49;56.23;44.94;73.25;;
76767;Laerm;65707;52.362;6.588;2024-02-28T11:27:20;51.03;44.20;69.52;;
76767;Laerm;65707;52.362;6.588;2024-02-28T11:29:48;57.45;43.32;76.57;;
76767;Laerm;65707;52.362;6.588;2024-02-28T11:32:15;49.28;42.08;61.17;;
76767;Laerm;65707;52.362;6.588;2024-02-28T11:34:42;51.05;43.44;66.18;;
76767;Laerm;65707;52.362;6.588;2024-02-28T11:37:10;66.42;43.69;83.57;;
76767;Laerm;65707;52.362;6.588;2024-02-28T11:39:37;57.94;45.33;76.08;;
76767;Laerm;65707;52.362;6.588;2024-02-28T11:42:11;50.66;43.65;64.46;;
76767;Laerm;65707;52.362;6.588;2024-02-28T11:44:39;62.45;42.81;81.05;;
76767;Laerm;65707;52.362;6.588;2024-02-28T11:47:09;62.60;42.38;80.06;;
76767;Laerm;65707;52.362;6.588;2024-02-28T11:49:36;62.00;43.81;81.64;;
76767;Laerm;65707;52.362;6.588;2024-02-28T11:52:04;51.96;43.55;73.10;;
76767;Laerm;65707;52.362;6.588;2024-02-28T11:54:31;56.73;43.70;71.09;;
76767;Laerm;65707;52.362;6.588;2024-02-28T11:56:58;58.36;43.86;78.85;;
76767;Laerm;65707;52.362;6.588;2024-02-28T11:59:25;51.01;45.19;64.27;;
76767;Laerm;65707;52.362;6.588;2024-02-28T12:01:51;58.17;44.25;75.73;;
76767;Laerm;65707;52.362;6.588;2024-02-28T12:04:19;49.95;44.05;68.01;;
76767;Laerm;65707;52.362;6.588;2024-02-28T12:06:46;52.52;44.27;63.84;;
76767;Laerm;65707;52.362;6.588;2024-02-28T12:09:14;59.24;46.34;76.31;;
76767;Laerm;65707;52.362;6.588;2024-02-28T12:11:40;63.48;44.47;81.22;;
76767;Laerm;65707;52.362;6.588;2024-02-28T12:14:12;51.80;42.95;70.36;;
76767;Laerm;65707;52.362;6.588;2024-02-28T12:16:39;50.42;43.06;65.20;;
76767;Laerm;65707;52.362;6.588;2024-02-28T12:19:08;52.37;43.27;69.97;;
76767;Laerm;65707;52.362;6.588;2024-02-28T12:21:36;67.14;43.67;85.41;;
76767;Laerm;65707;52.362;6.588;2024-02-28T12:24:04;57.90;44.99;75.43;;
76767;Laerm;65707;52.362;6.588;2024-02-28T12:26:31;55.72;44.08;68.00;;
76767;Laerm;65707;52.362;6.588;2024-02-28T12:28:58;56.48;45.10;76.21;;
76767;Laerm;65707;52.362;6.588;2024-02-28T12:31:25;55.68;44.87;72.88;;
76767;Laerm;65707;52.362;6.588;2024-02-28T12:33:51;50.77;44.64;58.88;;
76767;Laerm;65707;52.362;6.588;2024-02-28T12:36:19;49.97;44.58;63.97;;
76767;Laerm;65707;52.362;6.588;2024-02-28T12:38:47;66.84;44.98;83.20;;
76767;Laerm;65707;52.362;6.588;2024-02-28T12:41:14;62.92;44.57;81.89;;
76767;Laerm;65707;52.362;6.588;2024-02-28T12:43:41;48.93;44.11;63.26;;
76767;Laerm;65707;52.362;6.588;2024-02-28T12:46:08;48.84;43.89;57.02;;
76767;Laerm;65707;52.362;6.588;2024-02-28T12:48:37;50.63;44.28;68.43;;
76767;Laerm;65707;52.362;6.588;2024-02-28T12:51:04;61.57;44.04;81.41;;
76767;Laerm;65707;52.362;6.588;2024-02-28T12:53:31;55.74;44.54;73.16;;
76767;Laerm;65707;52.362;6.588;2024-02-28T12:56:00;57.93;44.49;77.11;;
76767;Laerm;65707;52.362;6.588;2024-02-28T12:58:27;50.24;44.31;68.23;;
76767;Laerm;65707;52.362;6.588;2024-02-28T13:00:54;58.39;44.39;74.74;;
76767;Laerm;65707;52.362;6.588;2024-02-28T13:03:20;50.92;43.55;73.06;;
76767;Laerm;65707;52.362;6.588;2024-02-28T13:05:47;56.32;43.11;74.70;;
76767;Laerm;65707;52.362;6.588;2024-02-28T13:08:14;58.14;45.03;76.90;;
76767;Laerm;65707;52.362;6.588;2024-02-28T13:10:41;71.67;44.58;86.96;;
76767;Laerm;65707;52.362;6.588;2024-02-28T13:13:10;55.90;45.44;76.94;;
76767;Laerm;65707;52.362;6.588;2024-02-28T13:15:37;49.97;43.75;66.60;;
76767;Laerm;65707;52.362;6.588;2024-02-28T13:18:04;50.96;43.80;68.02;;
76767;Laerm;65707;52.362;6.588;2024-02-28T13:20:34;63.58;44.51;81.71;;
76767;Laerm;65707;52.362;6.588;2024-02-28T13:23:03;52.14;44.24;68.36;;
76767;Laerm;65707;52.362;6.588;2024-02-28T13:25:30;56.62;45.94;74.23;;
76767;Laerm;65707;52.362;6.588;2024-02-28T13:27:56;51.10;43.74;67.59;;
76767;Laerm;65707;52.362;6.588;2024-02-28T13:30:25;57.38;45.24;74.08;;
76767;Laerm;65707;52.362;6.588;2024-02-28T13:32:52;55.75;45.20;74.19;;
76767;Laerm;65707;52.362;6.588;2024-02-28T13:35:18;51.68;43.53;71.51;;
76767;Laerm;65707;52.362;6.588;2024-02-28T13:37:45;58.58;43.15;77.82;;
76767;Laerm;65707;52.362;6.588;2024-02-28T13:40:12;57.73;44.56;71.91;;
76767;Laerm;65707;52.362;6.588;2024-02-28T13:42:38;50.96;44.15;64.22;;
76767;Laerm;65707;52.362;6.588;2024-02-28T13:45:07;49.36;44.34;64.24;;